Time;durP1;ratioP1;P1;durP2;ratioP2;P2;SDS_P1;SDS_P2;PMS_P1;PMS_P2;Temp;Humidity;BMP_temperature;BMP_pressure;BME280_temperature;BME280_humidity;BME280_pressure;Samples;Min_cycle;Max_cycle;Signal;HPM_P1;HPM_P2
2023/12/18 00:00:24;;;;;;;25.80;9.60;;;;;;;4.28;100.00;103226.13;5067738;28;20037;-57
2023/12/18 00:02:50;;;;;;;23.38;9.15;;;;;;;4.30;100.00;103224.03;5056045;28;20579;-57
2023/12/18 00:05:15;;;;;;;25.02;9.90;;;;;;;4.35;100.00;103216.00;5055532;28;20032;-57
2023/12/18 00:07:40;;;;;;;25.63;10.07;;;;;;;4.32;100.00;103213.69;5058299;28;20029;-58
2023/12/18 00:10:06;;;;;;;25.58;10.18;;;;;;;4.34;100.00;103217.09;5055757;28;20380;-58
2023/12/18 00:12:31;;;;;;;26.50;10.30;;;;;;;4.34;100.00;103211.59;5053409;28;20055;-58
2023/12/18 00:14:56;;;;;;;25.45;9.90;;;;;;;4.36;100.00;103207.59;5064729;28;20064;-58
2023/12/18 00:17:22;;;;;;;26.13;9.98;;;;;;;4.37;100.00;103200.22;5057964;28;20032;-58
2023/12/18 00:19:47;;;;;;;23.52;10.05;;;;;;;4.38;100.00;103196.44;5067658;28;20033;-58
2023/12/18 00:22:12;;;;;;;26.25;10.18;;;;;;;4.36;100.00;103193.91;5052929;28;20029;-58
2023/12/18 00:24:38;;;;;;;26.20;10.52;;;;;;;4.40;100.00;103208.03;5050918;28;20056;-58
2023/12/18 00:27:03;;;;;;;27.02;10.88;;;;;;;4.42;100.00;103200.47;5053376;28;20048;-58
2023/12/18 00:29:29;;;;;;;26.02;11.05;;;;;;;4.41;100.00;103197.91;5062319;28;20029;-57
2023/12/18 00:31:54;;;;;;;25.98;10.52;;;;;;;4.42;100.00;103188.63;5055141;28;20439;-58
2023/12/18 00:34:19;;;;;;;24.17;11.07;;;;;;;4.45;100.00;103196.44;5058524;28;20043;-57
2023/12/18 00:36:44;;;;;;;28.45;10.90;;;;;;;4.39;100.00;103194.53;5065608;28;20101;-57
2023/12/18 00:39:11;;;;;;;24.48;9.70;;;;;;;4.41;100.00;103189.69;5069129;28;20040;-57
2023/12/18 00:41:37;;;;;;;25.70;10.63;;;;;;;4.37;100.00;103181.03;5057347;28;20024;-57
2023/12/18 00:44:02;;;;;;;24.60;10.25;;;;;;;4.39;100.00;103184.41;5055358;28;20032;-57
2023/12/18 00:46:27;;;;;;;25.35;10.65;;;;;;;4.37;100.00;103189.25;5061194;28;20480;-57
2023/12/18 00:48:53;;;;;;;27.13;10.75;;;;;;;4.33;100.00;103174.28;5066770;28;20362;-57
2023/12/18 00:51:18;;;;;;;25.40;9.98;;;;;;;4.39;100.00;103178.09;5043736;28;20086;-58
2023/12/18 00:53:43;;;;;;;27.00;10.88;;;;;;;4.32;100.00;103173.44;5056787;28;20393;-58
2023/12/18 00:56:09;;;;;;;28.00;10.35;;;;;;;4.28;100.00;103171.31;5062708;28;20578;-58
2023/12/18 00:58:34;;;;;;;27.60;10.15;;;;;;;4.29;100.00;103178.47;5069167;28;20170;-58
2023/12/18 01:01:00;;;;;;;24.92;10.10;;;;;;;4.31;100.00;103176.38;5055428;28;20041;-57
2023/12/18 01:03:25;;;;;;;27.20;10.45;;;;;;;4.28;100.00;103169.44;5049278;28;20033;-57
2023/12/18 01:05:50;;;;;;;25.38;10.48;;;;;;;4.24;100.00;103167.31;5051007;28;20154;-57
2023/12/18 01:08:16;;;;;;;26.98;11.30;;;;;;;4.20;100.00;103175.09;5055325;28;20419;-57
2023/12/18 01:10:41;;;;;;;28.08;10.82;;;;;;;4.20;100.00;103181.41;5051891;28;20025;-58
2023/12/18 01:13:06;;;;;;;25.80;10.50;;;;;;;4.19;100.00;103174.22;5048706;28;20044;-58
2023/12/18 01:15:32;;;;;;;26.77;10.77;;;;;;;4.19;100.00;103178.88;5051303;28;20036;-58
2023/12/18 01:17:57;;;;;;;26.52;10.68;;;;;;;4.24;100.00;103170.03;5066404;28;20039;-57
2023/12/18 01:20:22;;;;;;;25.50;10.18;;;;;;;4.26;100.00;103165.19;5065163;28;20508;-58
2023/12/18 01:22:47;;;;;;;29.33;11.25;;;;;;;4.25;100.00;103158.03;5049949;28;20025;-57
2023/12/18 01:25:13;;;;;;;27.23;11.38;;;;;;;4.25;100.00;103156.13;5051312;28;20017;-58
2023/12/18 01:27:39;;;;;;;27.17;10.65;;;;;;;4.25;100.00;103161.63;5050324;28;20103;-57
2023/12/18 01:30:05;;;;;;;28.20;10.63;;;;;;;4.31;100.00;103159.94;5055271;28;20029;-58
2023/12/18 01:32:32;;;;;;;27.17;11.93;;;;;;;4.34;100.00;103174.06;5050035;28;20386;-57
2023/12/18 01:34:57;;;;;;;27.10;11.32;;;;;;;4.31;100.00;103163.50;5065662;28;20037;-58
2023/12/18 01:37:23;;;;;;;25.67;10.75;;;;;;;4.33;100.00;103166.06;5058055;28;20025;-57
2023/12/18 01:39:48;;;;;;;27.02;11.82;;;;;;;4.38;100.00;103166.28;5070067;28;20120;-58
2023/12/18 01:42:13;;;;;;;28.63;11.25;;;;;;;4.36;100.00;103173.84;5050354;28;20028;-57
2023/12/18 01:44:39;;;;;;;28.45;11.60;;;;;;;4.39;100.00;103178.09;5051720;28;20138;-58
2023/12/18 01:47:04;;;;;;;24.75;10.80;;;;;;;4.42;100.00;103172.19;5056503;28;20571;-58
2023/12/18 01:49:30;;;;;;;28.25;12.00;;;;;;;4.40;100.00;103171.53;5073453;28;20043;-58
2023/12/18 01:51:55;;;;;;;28.25;11.93;;;;;;;4.40;100.00;103166.06;5055309;28;20100;-57
2023/12/18 01:54:22;;;;;;;26.75;11.60;;;;;;;4.43;100.00;103163.78;5053741;28;20033;-58
2023/12/18 01:56:50;;;;;;;29.63;12.82;;;;;;;4.48;100.00;103160.41;5054256;28;20110;-57
2023/12/18 01:59:16;;;;;;;27.13;11.10;;;;;;;4.52;100.00;103169.91;5074125;28;20060;-58
2023/12/18 02:01:42;;;;;;;29.73;12.82;;;;;;;4.50;100.00;103161.03;5061737;28;20059;-57
2023/12/18 02:04:07;;;;;;;28.65;11.48;;;;;;;4.50;100.00;103158.28;5068680;28;20032;-58
2023/12/18 02:06:33;;;;;;;27.95;12.23;;;;;;;4.52;100.00;103156.19;5072401;28;20036;-58
2023/12/18 02:08:58;;;;;;;25.75;12.10;;;;;;;4.53;100.00;103160.63;5057378;28;20017;-58
2023/12/18 02:11:24;;;;;;;28.30;12.10;;;;;;;4.54;100.00;103148.59;5053830;28;20132;-57
2023/12/18 02:13:49;;;;;;;29.13;12.60;;;;;;;4.56;100.00;103143.75;5054502;28;20037;-57
2023/12/18 02:16:14;;;;;;;31.27;14.02;;;;;;;4.55;100.00;103144.81;5053818;28;20021;-57
2023/12/18 02:18:44;;;;;;;27.83;11.95;;;;;;;4.49;100.00;103135.53;5064162;28;20032;-58
2023/12/18 02:21:10;;;;;;;31.33;12.88;;;;;;;4.60;100.00;103142.28;5073211;28;20441;-58
2023/12/18 02:23:35;;;;;;;29.90;11.93;;;;;;;4.65;100.00;103145.25;5055934;28;20036;-58
2023/12/18 02:26:00;;;;;;;29.30;12.52;;;;;;;4.61;100.00;103126.69;5068936;28;20032;-58
2023/12/18 02:28:26;;;;;;;28.67;13.63;;;;;;;4.62;100.00;103133.84;5060571;28;20048;-58
2023/12/18 02:30:51;;;;;;;29.17;12.90;;;;;;;4.63;100.00;103130.06;5068046;28;20432;-58
2023/12/18 02:33:17;;;;;;;29.00;13.75;;;;;;;4.61;100.00;103129.44;5054181;28;20048;-58
2023/12/18 02:35:42;;;;;;;31.25;13.38;;;;;;;4.64;100.00;103137.22;5053278;28;20369;-58
2023/12/18 02:38:07;;;;;;;28.98;12.70;;;;;;;4.61;100.00;103134.91;5052617;28;20033;-58
2023/12/18 02:40:33;;;;;;;28.35;12.77;;;;;;;4.63;100.00;103132.81;5053349;28;20120;-59
2023/12/18 02:42:58;;;;;;;28.52;13.25;;;;;;;4.62;100.00;103136.59;5055224;28;20033;-58
2023/12/18 02:45:23;;;;;;;27.98;12.55;;;;;;;4.66;100.00;103135.97;5032998;28;20061;-58
2023/12/18 02:47:48;;;;;;;31.42;12.10;;;;;;;4.67;100.00;103125.84;5040210;28;20027;-58
2023/12/18 02:50:15;;;;;;;27.13;11.38;;;;;;;4.68;100.00;103124.78;5053027;28;20064;-58
2023/12/18 02:52:40;;;;;;;27.30;11.73;;;;;;;4.68;100.00;103116.56;5052250;28;20144;-58
2023/12/18 02:55:05;;;;;;;29.30;12.68;;;;;;;4.69;100.00;103107.28;5052106;28;20108;-58
2023/12/18 02:57:31;;;;;;;27.73;12.23;;;;;;;4.67;100.00;103117.59;5052990;28;20064;-58
2023/12/18 02:59:56;;;;;;;29.73;12.77;;;;;;;4.64;100.00;103115.28;5055462;28;20090;-58
2023/12/18 03:02:21;;;;;;;30.75;13.70;;;;;;;4.63;100.00;103110.88;5070017;28;20399;-58
2023/12/18 03:04:46;;;;;;;30.83;13.13;;;;;;;4.61;100.00;103115.72;5052741;28;20110;-57
2023/12/18 03:07:12;;;;;;;29.73;12.63;;;;;;;4.62;100.00;103120.16;5057122;28;20600;-58
2023/12/18 03:09:37;;;;;;;27.20;12.30;;;;;;;4.58;100.00;103116.97;5063562;28;20040;-57
2023/12/18 03:12:03;;;;;;;28.15;12.95;;;;;;;4.57;100.00;103114.44;5050902;28;20021;-57
2023/12/18 03:14:29;;;;;;;29.15;13.05;;;;;;;4.58;100.00;103110.66;5054676;28;20029;-57
2023/12/18 03:16:54;;;;;;;28.25;12.50;;;;;;;4.57;100.00;103119.91;5052210;28;20027;-57
2023/12/18 03:19:19;;;;;;;30.38;12.80;;;;;;;4.55;100.00;103113.78;5060901;28;20063;-57
2023/12/18 03:21:45;;;;;;;27.13;12.73;;;;;;;4.59;100.00;103115.06;5052406;28;20029;-58
2023/12/18 03:24:11;;;;;;;28.30;12.60;;;;;;;4.57;100.00;103111.69;5062184;28;20472;-57
2023/12/18 03:26:36;;;;;;;27.77;12.40;;;;;;;4.57;100.00;103118.03;5070553;28;20141;-57
2023/12/18 03:29:01;;;;;;;30.85;12.52;;;;;;;4.52;100.00;103115.94;5054448;28;20032;-58
2023/12/18 03:31:27;;;;;;;28.60;12.75;;;;;;;4.52;100.00;103118.66;5051979;28;20033;-58
2023/12/18 03:33:52;;;;;;;29.45;12.43;;;;;;;4.55;100.00;103117.41;5051904;28;20116;-58
2023/12/18 03:36:17;;;;;;;27.65;11.98;;;;;;;4.53;100.00;103114.84;5051812;28;20401;-58
2023/12/18 03:38:42;;;;;;;31.48;13.10;;;;;;;4.54;100.00;103115.72;5055892;28;20044;-58
2023/12/18 03:41:08;;;;;;;31.23;13.73;;;;;;;4.55;100.00;103103.69;5038362;28;20467;-58
2023/12/18 03:43:34;;;;;;;29.35;13.25;;;;;;;4.54;100.00;103104.75;5048368;28;20032;-58
2023/12/18 03:45:59;;;;;;;28.15;11.90;;;;;;;4.57;100.00;103108.94;5066652;28;20017;-58
2023/12/18 03:48:24;;;;;;;29.52;13.27;;;;;;;4.58;100.00;103103.25;5065954;28;20035;-58
2023/12/18 03:50:49;;;;;;;31.42;14.18;;;;;;;4.59;100.00;103112.34;5058879;28;20090;-58
2023/12/18 03:53:15;;;;;;;30.35;14.45;;;;;;;4.58;100.00;103116.13;5051369;28;20433;-57
2023/12/18 03:55:40;;;;;;;29.52;13.38;;;;;;;4.57;100.00;103114.44;5063276;28;20121;-57
2023/12/18 03:58:05;;;;;;;29.75;14.30;;;;;;;4.58;100.00;103122.44;5056685;28;20469;-58
2023/12/18 04:00:31;;;;;;;28.25;13.30;;;;;;;4.59;100.00;103126.03;5071545;28;20032;-58
2023/12/18 04:02:57;;;;;;;31.48;13.88;;;;;;;4.52;100.00;103115.94;5062751;28;20079;-58
2023/12/18 04:05:25;;;;;;;30.15;13.68;;;;;;;4.56;100.00;103116.34;5051768;28;20044;-57
2023/12/18 04:07:50;;;;;;;31.33;14.05;;;;;;;4.58;100.00;103108.72;5051575;28;20032;-58
2023/12/18 04:10:16;;;;;;;28.55;13.45;;;;;;;4.58;100.00;103116.97;5050722;28;20083;-58
2023/12/18 04:12:42;;;;;;;29.95;14.48;;;;;;;4.58;100.00;103106.00;5050606;28;20033;-57
2023/12/18 04:15:09;;;;;;;33.38;14.40;;;;;;;4.64;100.00;103105.16;5052792;28;20024;-58
2023/12/18 04:17:34;;;;;;;32.17;14.23;;;;;;;4.66;100.00;103099.47;5065604;28;20120;-58
2023/12/18 04:19:59;;;;;;;30.35;13.98;;;;;;;4.65;100.00;103101.38;5066681;28;20107;-57
2023/12/18 04:22:24;;;;;;;32.53;14.35;;;;;;;4.64;100.00;103099.69;5055623;28;20032;-58
2023/12/18 04:24:50;;;;;;;32.63;15.30;;;;;;;4.64;100.00;103109.78;5067029;28;20119;-58
2023/12/18 04:27:15;;;;;;;30.15;13.75;;;;;;;4.63;100.00;103102.66;5066912;28;20021;-57
2023/12/18 04:29:40;;;;;;;35.65;15.32;;;;;;;4.65;100.00;103090.41;5052620;28;20028;-58
2023/12/18 04:32:06;;;;;;;34.78;15.73;;;;;;;4.65;100.00;103093.16;5050630;28;20024;-58
2023/12/18 04:34:31;;;;;;;34.60;14.48;;;;;;;4.66;100.00;103094.84;5059212;28;20488;-57
2023/12/18 04:36:56;;;;;;;36.47;15.60;;;;;;;4.66;100.00;103092.09;5070322;28;20066;-57
2023/12/18 04:39:22;;;;;;;31.35;14.70;;;;;;;4.69;100.00;103091.66;5069218;28;20035;-58
2023/12/18 04:41:47;;;;;;;27.92;12.38;;;;;;;4.68;100.00;103089.13;5066644;28;20025;-61
2023/12/18 04:44:14;;;;;;;31.65;14.30;;;;;;;4.63;100.00;103094.44;5056846;28;20017;-58
2023/12/18 04:46:40;;;;;;;30.60;14.07;;;;;;;4.71;100.00;103091.47;5070744;28;20369;-58
2023/12/18 04:49:05;;;;;;;31.35;14.75;;;;;;;4.75;100.00;103103.69;5062997;28;20337;-57
2023/12/18 04:51:30;;;;;;;29.52;14.88;;;;;;;4.71;100.00;103091.47;5049354;28;20021;-57
2023/12/18 04:53:56;;;;;;;31.63;13.70;;;;;;;4.69;100.00;103088.09;5053890;28;20033;-58
2023/12/18 04:56:22;;;;;;;31.58;14.38;;;;;;;4.66;100.00;103069.31;5041136;28;20492;-57
2023/12/18 04:58:47;;;;;;;32.80;15.00;;;;;;;4.66;100.00;103080.28;5055234;28;20039;-57
2023/12/18 05:01:12;;;;;;;30.60;13.85;;;;;;;4.66;100.00;103085.75;5050549;28;20033;-57
2023/12/18 05:03:37;;;;;;;29.98;14.85;;;;;;;4.69;100.00;103094.41;5065191;28;20051;-57
2023/12/18 05:06:03;;;;;;;32.30;14.20;;;;;;;4.68;100.00;103089.97;5060184;28;20488;-57
2023/12/18 05:08:31;;;;;;;31.60;14.02;;;;;;;4.69;100.00;103088.09;5066182;28;20021;-58
2023/12/18 05:10:56;;;;;;;32.45;14.63;;;;;;;4.67;100.00;103085.56;5053827;28;20042;-58
2023/12/18 05:13:22;;;;;;;31.63;13.90;;;;;;;4.68;100.00;103087.22;5054542;28;20021;-59
2023/12/18 05:15:47;;;;;;;30.88;13.82;;;;;;;4.68;100.00;103078.16;5059329;28;20032;-58
2023/12/18 05:18:13;;;;;;;32.28;14.30;;;;;;;4.75;100.00;103083.66;5069632;28;20036;-58
2023/12/18 05:20:38;;;;;;;32.63;15.02;;;;;;;4.69;100.00;103082.59;5063731;28;20115;-58
2023/12/18 05:23:04;;;;;;;32.70;15.00;;;;;;;4.69;100.00;103082.59;5058336;28;20025;-57
2023/12/18 05:25:29;;;;;;;33.53;15.07;;;;;;;4.71;100.00;103076.91;5053849;28;20452;-57
2023/12/18 05:27:55;;;;;;;32.42;13.70;;;;;;;4.75;100.00;103086.41;5053907;28;20395;-57
2023/12/18 05:30:20;;;;;;;30.52;13.65;;;;;;;4.77;100.00;103076.06;5067873;28;20036;-57
2023/12/18 05:32:46;;;;;;;33.15;13.75;;;;;;;4.75;100.00;103075.44;5073737;28;20032;-58
2023/12/18 05:35:11;;;;;;;32.28;14.57;;;;;;;4.79;100.00;103087.66;5057013;28;20095;-58
2023/12/18 05:37:36;;;;;;;33.70;14.10;;;;;;;4.79;100.00;103085.78;5062905;28;20016;-57
2023/12/18 05:40:02;;;;;;;30.10;13.88;;;;;;;4.82;100.00;103087.25;5070039;28;20058;-57
2023/12/18 05:42:27;;;;;;;33.80;14.20;;;;;;;4.82;100.00;103077.09;5073506;28;20090;-57
2023/12/18 05:44:52;;;;;;;30.98;14.25;;;;;;;4.78;100.00;103084.06;5059218;28;20412;-57
2023/12/18 05:47:18;;;;;;;30.48;15.68;;;;;;;4.79;100.00;103091.25;5055526;28;20036;-57
2023/12/18 05:49:43;;;;;;;33.00;14.43;;;;;;;4.79;100.00;103088.50;5058856;28;20480;-57
2023/12/18 05:52:08;;;;;;;34.97;15.40;;;;;;;4.79;100.00;103084.91;5057128;28;20063;-58
2023/12/18 05:54:34;;;;;;;31.83;14.40;;;;;;;4.80;100.00;103098.44;5052897;28;20025;-57
2023/12/18 05:56:59;;;;;;;34.20;16.70;;;;;;;4.81;100.00;103093.78;5043696;28;20044;-57
2023/12/18 05:59:24;;;;;;;31.17;14.48;;;;;;;4.74;100.00;103092.94;5050055;28;20100;-57
2023/12/18 06:01:50;;;;;;;31.38;14.60;;;;;;;4.71;100.00;103083.25;5053154;28;20037;-57
2023/12/18 06:04:15;;;;;;;32.08;14.63;;;;;;;4.74;100.00;103092.94;5058750;28;20033;-57
2023/12/18 06:06:40;;;;;;;34.28;16.23;;;;;;;4.72;100.00;103086.81;5055078;28;20040;-56
2023/12/18 06:09:05;;;;;;;31.98;14.48;;;;;;;4.74;100.00;103084.72;5054608;28;20066;-57
2023/12/18 06:11:33;;;;;;;33.65;14.70;;;;;;;4.73;100.00;103077.53;5073076;28;20433;-57
2023/12/18 06:13:58;;;;;;;34.67;15.15;;;;;;;4.69;100.00;103077.94;5054389;28;20131;-56
2023/12/18 06:16:23;;;;;;;33.60;15.15;;;;;;;4.72;100.00;103076.72;5054439;28;20128;-56
2023/12/18 06:18:49;;;;;;;35.85;15.50;;;;;;;4.76;100.00;103077.13;5052818;28;20032;-57
2023/12/18 06:21:14;;;;;;;31.02;14.07;;;;;;;4.76;100.00;103083.44;5066161;28;20028;-57
2023/12/18 06:23:42;;;;;;;32.50;14.85;;;;;;;4.68;100.00;103070.78;5069878;28;20334;-57
2023/12/18 06:26:07;;;;;;;34.85;14.57;;;;;;;4.78;100.00;103080.47;5052024;28;20036;-57
2023/12/18 06:28:33;;;;;;;34.53;14.50;;;;;;;4.78;100.00;103077.72;5059274;28;20028;-56
2023/12/18 06:30:58;;;;;;;33.90;15.45;;;;;;;4.78;100.00;103081.34;5052622;28;20384;-57
2023/12/18 06:33:24;;;;;;;33.63;15.25;;;;;;;4.78;100.00;103078.59;5060508;28;20107;-57
2023/12/18 06:35:49;;;;;;;32.45;15.40;;;;;;;4.77;100.00;103079.66;5058119;28;20077;-57
2023/12/18 06:38:14;;;;;;;32.90;14.43;;;;;;;4.79;100.00;103076.69;5058249;28;20115;-57
2023/12/18 06:40:40;;;;;;;32.20;13.63;;;;;;;4.76;100.00;103075.22;5053011;28;20465;-56
2023/12/18 06:43:05;;;;;;;35.35;15.88;;;;;;;4.75;100.00;103079.00;5043691;28;20038;-57
2023/12/18 06:45:30;;;;;;;34.13;14.57;;;;;;;4.71;100.00;103075.00;5048172;28;20033;-56
2023/12/18 06:47:55;;;;;;;32.17;14.32;;;;;;;4.73;100.00;103072.06;5052168;28;20066;-57
2023/12/18 06:50:21;;;;;;;32.85;14.88;;;;;;;4.74;100.00;103079.22;5057110;28;20373;-56
2023/12/18 06:52:46;;;;;;;34.83;14.77;;;;;;;4.76;100.00;103077.13;5068506;28;20392;-57
2023/12/18 06:55:12;;;;;;;32.60;13.57;;;;;;;4.79;100.00;103083.03;5062772;28;20044;-57
2023/12/18 06:57:37;;;;;;;34.83;14.40;;;;;;;4.79;100.00;103085.78;5051258;28;20045;-57
2023/12/18 07:00:03;;;;;;;34.47;15.23;;;;;;;4.78;100.00;103077.72;5062831;28;20110;-59
2023/12/18 07:02:28;;;;;;;31.65;13.82;;;;;;;4.84;100.00;103082.38;5049579;28;20103;-56
2023/12/18 07:04:53;;;;;;;31.08;14.27;;;;;;;4.81;100.00;103082.81;5066848;28;20105;-56
2023/12/18 07:07:19;;;;;;;31.42;15.48;;;;;;;4.82;100.00;103084.50;5071196;28;20518;-56
2023/12/18 07:09:44;;;;;;;32.28;14.75;;;;;;;4.83;100.00;103092.50;5057951;28;20020;-56
2023/12/18 07:12:10;;;;;;;32.40;14.23;;;;;;;4.84;100.00;103093.34;5071978;28;20033;-56
2023/12/18 07:14:37;;;;;;;36.80;15.10;;;;;;;4.85;100.00;103103.28;5064633;28;20465;-56
2023/12/18 07:17:03;;;;;;;32.67;14.32;;;;;;;4.87;100.00;103095.66;5058029;28;20099;-56
2023/12/18 07:19:28;;;;;;;31.30;15.23;;;;;;;4.87;100.00;103092.09;5060595;28;20064;-58
2023/12/18 07:21:53;;;;;;;32.75;13.95;;;;;;;4.89;100.00;103101.78;5068632;28;20029;-57
2023/12/18 07:24:19;;;;;;;32.28;14.52;;;;;;;4.91;100.00;103090.63;5051700;28;20036;-56
2023/12/18 07:26:44;;;;;;;32.15;14.43;;;;;;;4.90;100.00;103094.41;5051651;28;20381;-56
2023/12/18 07:29:09;;;;;;;31.85;14.75;;;;;;;4.91;100.00;103093.34;5050816;28;20029;-56
2023/12/18 07:31:34;;;;;;;31.27;14.85;;;;;;;4.91;100.00;103090.63;5055056;28;20078;-56
2023/12/18 07:34:00;;;;;;;33.50;14.65;;;;;;;4.93;100.00;103097.56;5059335;28;20477;-57
2023/12/18 07:36:25;;;;;;;32.55;15.00;;;;;;;4.97;100.00;103097.97;5066353;28;20032;-56
2023/12/18 07:38:51;;;;;;;33.55;14.75;;;;;;;4.94;100.00;103099.25;5052019;28;20035;-56
2023/12/18 07:41:16;;;;;;;33.58;14.40;;;;;;;4.92;100.00;103100.50;5050383;28;20024;-56
2023/12/18 07:43:42;;;;;;;34.63;14.55;;;;;;;4.93;100.00;103097.56;5050881;28;20024;-56
2023/12/18 07:46:18;;;;;;;34.60;15.63;;;;;;;4.92;100.00;103092.28;5061755;28;20036;-56
2023/12/18 07:48:46;;;;;;;32.30;14.48;;;;;;;4.91;100.00;103093.34;5054946;28;20152;-56
2023/12/18 07:51:12;;;;;;;35.67;15.75;;;;;;;4.91;100.00;103091.44;5052940;28;20029;-56
2023/12/18 07:53:38;;;;;;;32.85;14.48;;;;;;;4.95;100.00;103089.97;5037096;28;20152;-57
2023/12/18 07:56:04;;;;;;;33.42;14.95;;;;;;;5.02;100.00;103083.63;5060086;28;20428;-57
2023/12/18 07:58:29;;;;;;;32.40;15.23;;;;;;;4.97;100.00;103082.34;5053947;28;20044;-57
2023/12/18 08:00:55;;;;;;;33.55;14.85;;;;;;;5.00;100.00;103078.38;5056688;28;20029;-57
2023/12/18 08:03:20;;;;;;;34.47;15.40;;;;;;;5.01;100.00;103082.78;5053650;28;20452;-57
2023/12/18 08:05:46;;;;;;;32.72;14.52;;;;;;;4.98;100.00;103091.44;5067403;28;20066;-57
2023/12/18 08:08:11;;;;;;;30.45;14.85;;;;;;;4.95;100.00;103086.38;5069949;28;20040;-57
2023/12/18 08:10:37;;;;;;;34.75;15.43;;;;;;;4.98;100.00;103081.31;5069448;28;20043;-57
2023/12/18 08:13:02;;;;;;;36.08;15.73;;;;;;;4.97;100.00;103076.88;5069764;28;20433;-57
2023/12/18 08:15:27;;;;;;;31.65;13.38;;;;;;;4.97;100.00;103076.03;5061094;28;20028;-57
2023/12/18 08:17:53;;;;;;;33.63;15.80;;;;;;;4.98;100.00;103078.56;5051055;28;20036;-56
2023/12/18 08:20:18;;;;;;;35.20;14.88;;;;;;;4.99;100.00;103073.94;5051846;28;20033;-57
2023/12/18 08:22:44;;;;;;;32.38;14.10;;;;;;;4.99;100.00;103073.94;5051346;28;20032;-57
2023/12/18 08:25:09;;;;;;;36.72;16.35;;;;;;;5.00;100.00;103072.88;5029760;28;20381;-56
2023/12/18 08:27:34;;;;;;;36.65;15.85;;;;;;;5.02;100.00;103069.91;5033593;28;20028;-57
2023/12/18 08:30:02;;;;;;;33.88;15.55;;;;;;;5.04;100.00;103070.56;5060089;28;20419;-56
2023/12/18 08:32:27;;;;;;;32.97;14.65;;;;;;;5.05;100.00;103062.09;5056387;28;20554;-57
2023/12/18 08:34:54;;;;;;;36.67;15.88;;;;;;;5.02;100.00;103069.91;5052725;28;20033;-55
2023/12/18 08:37:19;;;;;;;33.92;15.57;;;;;;;5.03;100.00;103071.59;5065816;28;20033;-55
2023/12/18 08:39:44;;;;;;;32.25;15.75;;;;;;;5.00;100.00;103064.66;5065135;28;20511;-57
2023/12/18 08:42:10;;;;;;;36.03;15.77;;;;;;;5.05;100.00;103074.97;5049311;28;20020;-56
2023/12/18 08:44:35;;;;;;;31.95;14.68;;;;;;;5.09;100.00;103066.09;5049570;28;20028;-57
2023/12/18 08:47:00;;;;;;;36.00;15.23;;;;;;;5.12;100.00;103060.16;5051494;28;20074;-57
2023/12/18 08:49:27;;;;;;;32.83;15.00;;;;;;;5.15;100.00;103056.16;5054634;28;20452;-57
2023/12/18 08:51:52;;;;;;;37.90;16.77;;;;;;;5.19;100.00;103053.84;5056930;28;20094;-57
2023/12/18 08:54:17;;;;;;;34.25;15.48;;;;;;;5.17;100.00;103045.81;5064571;28;20032;-57
2023/12/18 08:56:42;;;;;;;31.23;14.10;;;;;;;5.19;100.00;103056.59;5064468;28;20049;-57
2023/12/18 08:59:08;;;;;;;32.20;14.65;;;;;;;5.23;100.00;103050.44;5059789;28;20124;-56
2023/12/18 09:01:37;;;;;;;35.17;14.77;;;;;;;5.26;100.00;103054.66;5065496;28;20025;-56
2023/12/18 09:04:04;;;;;;;34.05;16.55;;;;;;;5.24;100.00;103056.78;5059044;28;20083;-56
2023/12/18 09:06:29;;;;;;;34.10;15.10;;;;;;;5.31;100.00;103049.34;5049440;28;20037;-56
2023/12/18 09:08:54;;;;;;;34.40;15.90;;;;;;;5.30;100.00;103044.91;5063770;28;20102;-56
2023/12/18 09:11:20;;;;;;;32.33;14.50;;;;;;;5.35;100.00;103049.75;5049304;28;20064;-56
2023/12/18 09:13:45;;;;;;;36.08;14.90;;;;;;;5.42;100.00;103048.69;5049294;28;20021;-55
2023/12/18 09:16:10;;;;;;;34.35;15.80;;;;;;;5.45;100.00;103059.25;5048897;28;20029;-55
2023/12/18 09:18:36;;;;;;;32.75;15.52;;;;;;;5.50;100.00;103055.84;5048917;28;20043;-56
2023/12/18 09:21:01;;;;;;;32.33;15.40;;;;;;;5.50;100.00;103044.00;5049088;28;20029;-55
2023/12/18 09:23:26;;;;;;;32.58;15.40;;;;;;;5.58;100.00;103052.00;5049290;28;20128;-56
2023/12/18 09:25:52;;;;;;;32.83;15.35;;;;;;;5.60;100.00;103045.25;5048207;28;20052;-56
2023/12/18 09:28:17;;;;;;;33.72;15.73;;;;;;;5.57;100.00;103047.59;5049289;28;20142;-56
2023/12/18 09:30:43;;;;;;;32.05;14.52;;;;;;;5.65;100.00;103062.94;5047810;28;20041;-56
2023/12/18 09:33:08;;;;;;;31.83;15.18;;;;;;;5.65;100.00;103051.97;5048028;28;20035;-57
2023/12/18 09:35:34;;;;;;;32.72;14.15;;;;;;;5.62;100.00;103061.50;5048955;28;20036;-56
2023/12/18 09:37:59;;;;;;;33.38;15.07;;;;;;;5.57;100.00;103059.41;5063425;28;20078;-56
2023/12/18 09:40:24;;;;;;;32.40;15.13;;;;;;;5.57;100.00;103067.63;5061626;28;20029;-56
2023/12/18 09:42:54;;;;;;;33.35;14.95;;;;;;;5.62;100.00;103065.06;5058952;28;20052;-56
2023/12/18 09:45:25;;;;;;;35.80;14.52;;;;;;;5.58;100.00;103061.09;5052319;28;20060;-56
2023/12/18 09:47:50;;;;;;;31.83;14.75;;;;;;;5.60;100.00;103067.22;5059235;28;20626;-56
2023/12/18 09:50:16;;;;;;;35.75;16.40;;;;;;;5.60;100.00;103064.47;5059173;28;20104;-55
2023/12/18 09:52:58;;;;;;;37.17;15.40;;;;;;;5.56;100.00;103054.97;5055154;28;20067;-56
2023/12/18 09:55:24;;;;;;;32.42;15.45;;;;;;;5.57;100.00;103053.91;5050532;28;20138;-57
2023/12/18 09:57:51;;;;;;;36.83;15.90;;;;;;;5.54;100.00;103053.50;5055919;28;20033;-57
2023/12/18 10:00:19;;;;;;;33.83;15.15;;;;;;;5.60;100.00;103052.63;5062713;28;20029;-57
2023/12/18 10:02:45;;;;;;;33.75;15.45;;;;;;;5.61;100.00;103054.31;5067226;28;20126;-57
2023/12/18 10:05:11;;;;;;;32.78;15.45;;;;;;;5.62;100.00;103045.00;5067327;28;20104;-56
2023/12/18 10:07:36;;;;;;;33.90;14.00;;;;;;;5.63;100.00;103058.50;5065067;28;20033;-57
2023/12/18 10:10:02;;;;;;;34.83;15.68;;;;;;;5.70;100.00;103052.16;5060035;28;20071;-57
2023/12/18 10:12:27;;;;;;;37.70;15.63;;;;;;;5.69;100.00;103040.31;5061952;28;20031;-56
2023/12/18 10:14:52;;;;;;;31.75;14.88;;;;;;;5.74;100.00;103047.91;5052377;28;20060;-55
2023/12/18 10:17:18;;;;;;;33.05;14.02;;;;;;;5.68;100.00;103035.88;5052121;28;20051;-56
2023/12/18 10:19:44;;;;;;;32.22;14.95;;;;;;;5.68;100.00;103041.38;5052311;28;20048;-57
2023/12/18 10:22:09;;;;;;;34.33;14.07;;;;;;;5.63;100.00;103032.97;5052298;28;20427;-57
2023/12/18 10:24:41;;;;;;;31.42;14.55;;;;;;;5.72;100.00;103030.78;5050746;28;20509;-57
2023/12/18 10:27:06;;;;;;;35.25;14.82;;;;;;;5.77;100.00;103031.81;5051920;28;20104;-57
2023/12/18 10:29:32;;;;;;;35.40;15.50;;;;;;;5.78;100.00;103035.44;5051048;28;20131;-57
2023/12/18 10:31:58;;;;;;;36.28;15.15;;;;;;;5.82;100.00;103035.84;5051589;28;20033;-57
2023/12/18 10:34:24;;;;;;;34.05;15.18;;;;;;;5.76;100.00;103018.31;5051720;28;20043;-57
2023/12/18 10:36:55;;;;;;;32.58;13.30;;;;;;;5.82;100.00;103035.84;5052359;28;20028;-57
2023/12/18 10:39:21;;;;;;;34.97;14.68;;;;;;;5.84;100.00;103028.22;5053063;28;20033;-57
2023/12/18 10:41:54;;;;;;;33.50;13.55;;;;;;;5.78;100.00;103010.72;5051599;28;20031;-57
2023/12/18 10:44:21;;;;;;;29.45;13.10;;;;;;;5.85;100.00;103017.00;5051792;28;20323;-57
2023/12/18 10:46:49;;;;;;;29.25;12.43;;;;;;;5.90;100.00;103008.91;5059210;28;20037;-57
2023/12/18 10:49:18;;;;;;;30.27;13.13;;;;;;;5.87;100.00;103011.28;5061509;28;20434;-57
2023/12/18 10:51:45;;;;;;;33.22;13.82;;;;;;;5.79;100.00;102995.91;5051429;28;20035;-57
2023/12/18 10:54:11;;;;;;;31.98;13.90;;;;;;;5.84;100.00;103004.31;5054401;28;20029;-57
2023/12/18 10:56:38;;;;;;;32.30;13.75;;;;;;;5.87;100.00;103000.28;5058413;28;20041;-57
2023/12/18 10:59:06;;;;;;;31.60;13.52;;;;;;;5.86;100.00;102996.72;5042889;28;20397;-57
2023/12/18 11:01:33;;;;;;;33.85;14.07;;;;;;;5.89;100.00;102990.78;5050825;28;20468;-57